Time;durP1;ratioP1;P1;durP2;ratioP2;P2;SDS_P1;SDS_P2;PMS_P1;PMS_P2;Temp;Humidity;BMP_temperature;BMP_pressure;BME280_temperature;BME280_humidity;BME280_pressure;Samples;Min_cycle;Max_cycle;Signal;HPM_P1;HPM_P2
2021/12/18 00:01:50;;;;;;;111.85;101.60;;;9.40;99.30;;;;;;5015107;28;20538;-76
2021/12/18 00:04:18;;;;;;;110.82;100.63;;;9.40;99.30;;;;;;5015016;28;20064;-76
2021/12/18 00:06:47;;;;;;;110.25;100.15;;;9.40;99.30;;;;;;5016385;28;20050;-76
2021/12/18 00:09:14;;;;;;;110.38;100.07;;;9.40;99.30;;;;;;5014740;28;20137;-76
2021/12/18 00:11:41;;;;;;;110.10;99.90;;;9.40;99.30;;;;;;5014594;28;20050;-76
2021/12/18 00:14:08;;;;;;;110.80;100.50;;;9.40;99.30;;;;;;4998582;28;20684;-76
2021/12/18 00:16:35;;;;;;;110.03;99.88;;;9.40;99.30;;;;;;5013920;28;20060;-76
2021/12/18 00:19:02;;;;;;;111.15;100.95;;;9.30;99.30;;;;;;5016047;28;20526;-76
2021/12/18 00:21:31;;;;;;;112.15;101.47;;;9.30;99.30;;;;;;5018383;28;20050;-77
2021/12/18 00:23:58;;;;;;;110.78;100.47;;;9.30;99.40;;;;;;5015113;28;20129;-76
2021/12/18 00:26:25;;;;;;;110.47;100.18;;;9.30;99.40;;;;;;5014942;28;20076;-76
2021/12/18 00:28:52;;;;;;;111.80;101.32;;;9.30;99.40;;;;;;5013952;28;20137;-76
2021/12/18 00:31:19;;;;;;;110.55;100.35;;;9.30;99.40;;;;;;5014471;28;20061;-76
2021/12/18 00:33:46;;;;;;;111.55;101.25;;;9.30;99.40;;;;;;5012885;28;20135;-77
2021/12/18 00:36:13;;;;;;;109.85;99.25;;;9.30;99.40;;;;;;5013949;28;20145;-76
2021/12/18 00:38:42;;;;;;;109.53;99.32;;;9.30;99.30;;;;;;5014428;28;20052;-76
2021/12/18 00:41:26;;;;;;;109.13;98.93;;;9.30;99.40;;;;;;5016096;28;20491;-76
2021/12/18 00:44:03;;;;;;;109.68;98.68;;;9.30;99.40;;;;;;5014608;28;20547;-76
2021/12/18 00:46:32;;;;;;;110.45;100.25;;;9.30;99.40;;;;;;5014295;28;20042;-76
2021/12/18 00:48:59;;;;;;;111.00;100.75;;;9.30;99.30;;;;;;5013822;28;20054;-76
2021/12/18 00:51:26;;;;;;;112.88;101.97;;;9.30;99.30;;;;;;5015699;28;20132;-77
2021/12/18 00:53:54;;;;;;;111.40;101.10;;;9.30;99.20;;;;;;5031006;28;20133;-76
2021/12/18 00:56:22;;;;;;;112.25;101.70;;;9.30;99.10;;;;;;5015567;28;20047;-76
2021/12/18 00:58:50;;;;;;;112.97;102.55;;;9.20;99.10;;;;;;5014037;28;20051;-76
2021/12/18 01:01:18;;;;;;;113.15;102.47;;;9.20;99.10;;;;;;5031009;28;20053;-76
2021/12/18 01:03:46;;;;;;;112.45;102.03;;;9.20;99.10;;;;;;5014067;28;20054;-76
2021/12/18 01:06:14;;;;;;;112.78;102.38;;;9.20;99.10;;;;;;5015388;28;20074;-76
2021/12/18 01:08:41;;;;;;;112.90;102.40;;;9.20;99.10;;;;;;5015158;28;20060;-76
2021/12/18 01:11:30;;;;;;;113.22;102.72;;;9.20;99.10;;;;;;5013761;28;20429;-76
2021/12/18 01:14:13;;;;;;;109.80;99.40;;;9.20;99.10;;;;;;5015318;28;20054;-76
2021/12/18 01:16:48;;;;;;;110.43;100.22;;;9.20;99.20;;;;;;5015336;28;20062;-76
2021/12/18 01:24:44;;;;;;;110.80;100.53;;;9.10;99.10;;;;;;5002913;28;20514;-76
2021/12/18 01:27:12;;;;;;;111.03;100.82;;;9.10;99.10;;;;;;5013524;28;20058;-76
2021/12/18 01:29:39;;;;;;;111.03;100.82;;;9.10;99.30;;;;;;5012949;28;20078;-76
2021/12/18 01:32:07;;;;;;;111.15;100.88;;;9.10;99.20;;;;;;5015316;28;20142;-76
2021/12/18 01:34:34;;;;;;;110.82;100.63;;;9.10;99.20;;;;;;5014889;28;20480;-76
2021/12/18 01:37:01;;;;;;;112.03;101.70;;;9.20;99.20;;;;;;5014728;28;20129;-76
2021/12/18 01:39:28;;;;;;;109.85;99.63;;;9.10;99.10;;;;;;5013502;28;20085;-76
2021/12/18 01:42:16;;;;;;;111.13;100.93;;;9.10;99.10;;;;;;5013563;28;20060;-76
2021/12/18 01:52:59;;;;;;;108.75;98.63;;;9.00;99.20;;;;;;5013285;28;20061;-76
2021/12/18 01:55:29;;;;;;;109.35;99.25;;;9.00;99.20;;;;;;5013214;28;20137;-76
2021/12/18 01:57:56;;;;;;;109.72;99.53;;;9.00;99.20;;;;;;5013253;28;20825;-76
2021/12/18 02:00:28;;;;;;;109.63;99.45;;;9.00;99.40;;;;;;5013166;28;20133;-76
2021/12/18 02:02:55;;;;;;;108.50;98.43;;;9.00;99.30;;;;;;5014973;28;20136;-76
2021/12/18 02:05:22;;;;;;;109.38;99.22;;;9.00;99.20;;;;;;5013228;28;20546;-76
2021/12/18 02:07:50;;;;;;;109.00;98.85;;;9.00;99.20;;;;;;5012890;28;20053;-76
2021/12/18 02:10:20;;;;;;;107.90;97.90;;;9.00;99.10;;;;;;5012700;28;20056;-75
2021/12/18 02:12:55;;;;;;;108.03;98.03;;;8.90;99.10;;;;;;5013035;28;20456;-76
2021/12/18 02:20:59;;;;;;;108.60;98.35;;;8.90;99.20;;;;;;5013327;28;20065;-76
2021/12/18 02:23:26;;;;;;;108.57;98.25;;;8.90;99.20;;;;;;5012786;28;20047;-76
2021/12/18 02:25:53;;;;;;;108.47;98.40;;;8.90;99.20;;;;;;5013012;28;20521;-76
2021/12/18 02:28:24;;;;;;;108.93;98.82;;;8.80;99.20;;;;;;5013788;28;20070;-77
2021/12/18 02:30:54;;;;;;;108.85;98.85;;;8.80;99.20;;;;;;5012328;28;20570;-76
2021/12/18 02:33:22;;;;;;;108.95;98.80;;;8.80;99.20;;;;;;4995862;28;20136;-76
2021/12/18 02:35:52;;;;;;;109.32;99.22;;;8.80;99.20;;;;;;5012779;28;20100;-76
2021/12/18 02:38:25;;;;;;;110.00;99.85;;;8.90;99.30;;;;;;5011547;28;20066;-76
2021/12/18 02:41:02;;;;;;;108.75;98.63;;;8.80;99.20;;;;;;5012419;28;20508;-76
2021/12/18 02:43:32;;;;;;;109.47;99.25;;;8.80;99.20;;;;;;5012535;28;20058;-76
2021/12/18 02:46:00;;;;;;;108.82;98.72;;;8.80;99.20;;;;;;5012621;28;20054;-76
2021/12/18 02:48:30;;;;;;;108.45;98.45;;;8.80;99.20;;;;;;5012341;28;20058;-76
2021/12/18 02:50:57;;;;;;;110.07;99.95;;;8.80;99.20;;;;;;5013748;28;20150;-75
2021/12/18 02:53:27;;;;;;;110.05;99.95;;;8.80;99.20;;;;;;5029218;28;20050;-76
2021/12/18 02:55:56;;;;;;;110.10;100.00;;;8.80;99.20;;;;;;5012855;28;20047;-76
2021/12/18 02:58:23;;;;;;;108.82;98.60;;;8.80;99.30;;;;;;5013750;28;20054;-76
2021/12/18 03:01:18;;;;;;;108.68;98.50;;;8.80;99.20;;;;;;5015283;28;20054;-76
2021/12/18 03:03:46;;;;;;;109.35;99.13;;;8.80;99.10;;;;;;5013915;28;20062;-76
2021/12/18 03:06:24;;;;;;;110.15;99.75;;;8.80;99.10;;;;;;5014045;28;20062;-76
2021/12/18 03:09:11;;;;;;;108.80;98.50;;;8.80;99.10;;;;;;5012214;28;20486;-76
2021/12/18 03:23:01;;;;;;;109.13;98.93;;;8.70;99.10;;;;;;5012033;28;20050;-76
2021/12/18 03:25:31;;;;;;;108.57;98.47;;;8.70;99.20;;;;;;5012181;28;20070;-76
2021/12/18 03:28:03;;;;;;;109.22;99.13;;;8.70;99.20;;;;;;5012002;28;20050;-76
2021/12/18 03:30:31;;;;;;;110.05;99.85;;;8.70;99.20;;;;;;5012073;28;20141;-76
2021/12/18 03:32:58;;;;;;;110.10;99.80;;;8.70;99.20;;;;;;5011952;28;20070;-76
2021/12/18 03:35:27;;;;;;;109.32;99.20;;;8.70;99.20;;;;;;5012249;28;20050;-76
2021/12/18 03:37:54;;;;;;;108.93;98.82;;;8.70;99.20;;;;;;5011753;28;20055;-76
2021/12/18 03:40:23;;;;;;;107.78;97.78;;;8.70;99.00;;;;;;5013376;28;20078;-76
2021/12/18 03:42:52;;;;;;;108.38;98.35;;;8.70;99.00;;;;;;5012001;28;20042;-76
2021/12/18 03:45:20;;;;;;;109.88;99.28;;;8.70;99.00;;;;;;5012437;28;20555;-76
2021/12/18 03:47:51;;;;;;;109.70;99.50;;;8.70;99.00;;;;;;5013316;28;20080;-76
2021/12/18 03:50:18;;;;;;;109.45;99.30;;;8.70;99.10;;;;;;5012221;28;20542;-76
2021/12/18 03:52:46;;;;;;;109.43;99.22;;;8.70;99.00;;;;;;5014032;28;20058;-76
2021/12/18 03:55:14;;;;;;;108.82;98.60;;;8.70;99.00;;;;;;5016342;28;20085;-76
2021/12/18 03:57:41;;;;;;;109.40;99.20;;;8.70;99.00;;;;;;5014914;28;20137;-76
2021/12/18 04:00:13;;;;;;;109.10;98.95;;;8.70;99.00;;;;;;5015225;28;20043;-76
2021/12/18 04:02:41;;;;;;;107.85;97.75;;;8.70;99.00;;;;;;5016550;28;20050;-76
2021/12/18 04:05:09;;;;;;;107.75;97.75;;;8.70;99.00;;;;;;5015120;28;20050;-76
2021/12/18 04:07:41;;;;;;;108.13;98.03;;;8.70;99.10;;;;;;5014738;28;20609;-76
2021/12/18 04:10:09;;;;;;;108.30;98.22;;;8.70;99.10;;;;;;4998332;28;20062;-76
2021/12/18 04:12:37;;;;;;;110.45;100.25;;;8.70;99.10;;;;;;4998760;28;20052;-77
2021/12/18 04:15:04;;;;;;;108.72;98.57;;;8.70;99.10;;;;;;5015222;28;20587;-76
2021/12/18 04:17:33;;;;;;;108.82;98.72;;;8.60;99.10;;;;;;5014800;28;20050;-76
2021/12/18 04:20:00;;;;;;;109.00;98.80;;;8.60;99.10;;;;;;5016265;28;20055;-76
2021/12/18 04:22:27;;;;;;;109.45;99.15;;;8.60;99.10;;;;;;5014832;28;20058;-76
2021/12/18 04:24:54;;;;;;;108.43;98.32;;;8.60;99.10;;;;;;5014880;28;20046;-76
2021/12/18 04:27:21;;;;;;;109.07;98.70;;;8.60;99.10;;;;;;5016015;28;20117;-76
2021/12/18 04:29:48;;;;;;;108.80;98.60;;;8.60;99.10;;;;;;5016316;28;20137;-76
2021/12/18 04:32:15;;;;;;;107.93;97.82;;;8.50;99.10;;;;;;5016000;28;20504;-76
2021/12/18 04:34:44;;;;;;;108.97;98.78;;;8.50;99.10;;;;;;5014792;28;20061;-76
2021/12/18 04:37:11;;;;;;;109.57;99.38;;;8.50;99.10;;;;;;5014185;28;20058;-76
2021/12/18 04:39:38;;;;;;;108.82;98.72;;;8.50;99.10;;;;;;5015856;28;20128;-76
2021/12/18 04:42:05;;;;;;;108.10;98.10;;;8.50;99.00;;;;;;5015883;28;20073;-76
2021/12/18 04:44:32;;;;;;;107.88;97.78;;;8.50;99.10;;;;;;5014449;28;20554;-76
2021/12/18 04:46:59;;;;;;;108.40;98.30;;;8.50;99.10;;;;;;5014301;28;20129;-76
2021/12/18 04:49:26;;;;;;;108.03;97.95;;;8.50;99.00;;;;;;5014381;28;20688;-76
2021/12/18 04:51:55;;;;;;;108.00;97.90;;;8.60;99.10;;;;;;5014322;28;20054;-76
2021/12/18 04:54:23;;;;;;;109.45;99.18;;;8.60;99.10;;;;;;5013917;28;20058;-76
2021/12/18 04:56:50;;;;;;;109.40;99.10;;;8.60;99.00;;;;;;5015589;28;20060;-76
2021/12/18 04:59:17;;;;;;;109.28;99.07;;;8.60;98.90;;;;;;5013925;28;20046;-76
2021/12/18 05:01:44;;;;;;;109.07;98.88;;;8.60;98.90;;;;;;5014215;28;20500;-76
2021/12/18 05:04:14;;;;;;;109.18;99.07;;;8.60;98.90;;;;;;5014638;28;20074;-76
2021/12/18 05:06:44;;;;;;;108.10;98.03;;;8.60;98.90;;;;;;5014411;28;20046;-76
2021/12/18 05:09:14;;;;;;;108.65;98.47;;;8.60;98.90;;;;;;5013705;28;20047;-76
2021/12/18 05:11:42;;;;;;;107.80;97.80;;;8.60;98.80;;;;;;5013924;28;20133;-76
2021/12/18 05:14:10;;;;;;;107.35;97.35;;;8.60;98.80;;;;;;5015258;28;20054;-76
2021/12/18 05:16:38;;;;;;;106.72;96.80;;;8.50;98.80;;;;;;5014285;28;20100;-76
2021/12/18 05:19:05;;;;;;;108.28;98.18;;;8.50;98.80;;;;;;5014095;28;20047;-75
2021/12/18 05:21:32;;;;;;;108.10;98.03;;;8.50;98.90;;;;;;5015616;28;20065;-76
2021/12/18 05:23:59;;;;;;;108.82;98.53;;;8.50;98.90;;;;;;5014923;28;20050;-76
2021/12/18 05:26:27;;;;;;;107.90;97.82;;;8.50;99.00;;;;;;5014995;28;20122;-76
2021/12/18 05:28:54;;;;;;;107.90;97.80;;;8.50;99.00;;;;;;5013369;28;20687;-76
2021/12/18 05:31:21;;;;;;;107.55;97.45;;;8.50;99.00;;;;;;5014865;28;20074;-76
2021/12/18 05:33:52;;;;;;;108.15;98.00;;;8.50;98.90;;;;;;5013483;28;20077;-75
2021/12/18 05:36:33;;;;;;;109.75;99.45;;;8.50;98.90;;;;;;5013460;28;20050;-76
2021/12/18 05:39:02;;;;;;;106.80;96.85;;;8.50;98.90;;;;;;5013415;28;20060;-76
2021/12/18 05:41:30;;;;;;;109.38;99.18;;;8.50;98.90;;;;;;5013536;28;20043;-76
2021/12/18 05:43:58;;;;;;;108.80;98.50;;;8.40;98.90;;;;;;5014721;28;20062;-76
2021/12/18 05:46:25;;;;;;;108.78;98.57;;;8.40;98.90;;;;;;5014876;28;20575;-76
2021/12/18 05:48:52;;;;;;;108.68;98.47;;;8.40;98.90;;;;;;5012954;28;20077;-76
2021/12/18 05:51:20;;;;;;;108.05;97.85;;;8.40;98.80;;;;;;5013765;28;20141;-76
2021/12/18 05:53:47;;;;;;;107.55;97.38;;;8.30;98.90;;;;;;5013623;28;20092;-76
2021/12/18 05:56:14;;;;;;;110.80;100.43;;;8.30;98.80;;;;;;5013393;28;20052;-75
2021/12/18 05:58:44;;;;;;;108.75;98.45;;;8.20;98.80;;;;;;5013036;28;20073;-76
2021/12/18 06:01:13;;;;;;;109.25;98.85;;;8.20;98.80;;;;;;5014518;28;20066;-76
2021/12/18 06:03:40;;;;;;;109.07;98.68;;;8.10;98.80;;;;;;5013243;28;20062;-76
2021/12/18 06:06:08;;;;;;;108.93;98.63;;;8.10;98.90;;;;;;5013518;28;20042;-76
2021/12/18 06:08:36;;;;;;;108.30;98.10;;;8.00;99.00;;;;;;5014662;28;20077;-76
2021/12/18 06:11:08;;;;;;;108.13;97.93;;;8.00;99.00;;;;;;5012312;28;20133;-75
2021/12/18 06:13:36;;;;;;;109.47;99.07;;;8.00;99.10;;;;;;5013004;28;20058;-76
2021/12/18 06:16:06;;;;;;;108.57;98.28;;;7.90;99.10;;;;;;5012692;28;20050;-76
2021/12/18 06:18:34;;;;;;;110.63;100.22;;;7.90;99.10;;;;;;5012909;28;20047;-76
2021/12/18 06:21:02;;;;;;;108.10;97.80;;;7.90;99.20;;;;;;5012791;28;20140;-75
2021/12/18 06:23:29;;;;;;;108.45;98.05;;;7.80;99.30;;;;;;5012764;28;20138;-76
2021/12/18 06:25:56;;;;;;;110.65;100.13;;;7.80;99.30;;;;;;5014278;28;20058;-76
2021/12/18 06:28:24;;;;;;;108.78;98.47;;;7.80;99.30;;;;;;5013688;28;20082;-76
2021/12/18 06:30:51;;;;;;;108.75;98.45;;;7.80;99.40;;;;;;5013749;28;20146;-76
2021/12/18 06:33:20;;;;;;;109.78;99.07;;;7.80;99.40;;;;;;5013199;28;20499;-76
2021/12/18 06:35:47;;;;;;;110.22;99.63;;;7.80;99.40;;;;;;5012559;28;20048;-76
2021/12/18 06:38:14;;;;;;;110.45;99.95;;;7.80;99.40;;;;;;5012188;28;20053;-76
2021/12/18 06:40:42;;;;;;;109.85;99.38;;;7.80;99.50;;;;;;5012514;28;20542;-76
2021/12/18 06:43:09;;;;;;;110.30;99.75;;;7.80;99.70;;;;;;5012472;28;20129;-76
2021/12/18 06:45:36;;;;;;;111.75;101.00;;;7.80;99.50;;;;;;5016189;28;20116;-76
2021/12/18 06:48:04;;;;;;;111.55;100.85;;;7.80;99.50;;;;;;4992203;28;20130;-76
2021/12/18 06:50:33;;;;;;;110.95;100.28;;;7.80;99.60;;;;;;5028349;28;20065;-76
2021/12/18 06:53:05;;;;;;;109.20;98.63;;;7.80;99.60;;;;;;5014226;28;20060;-76
2021/12/18 06:55:34;;;;;;;111.90;101.28;;;7.80;99.60;;;;;;5028916;28;20081;-76
2021/12/18 06:58:02;;;;;;;110.03;99.47;;;7.70;99.60;;;;;;5012522;28;20074;-75
2021/12/18 07:00:30;;;;;;;109.78;99.18;;;7.80;99.60;;;;;;5011338;28;20129;-76
2021/12/18 07:02:57;;;;;;;110.50;99.75;;;7.70;99.70;;;;;;5012434;28;20447;-76
2021/12/18 07:05:24;;;;;;;110.65;99.50;;;7.70;99.70;;;;;;5022509;28;20041;-76
2021/12/18 07:07:52;;;;;;;110.70;99.90;;;7.70;99.70;;;;;;5011992;28;20193;-77
2021/12/18 07:10:20;;;;;;;110.68;100.07;;;7.70;99.70;;;;;;4995671;28;20054;-76
2021/12/18 07:12:47;;;;;;;108.65;98.15;;;7.70;99.80;;;;;;5013554;28;20170;-75
2021/12/18 07:15:15;;;;;;;110.82;99.82;;;7.80;99.80;;;;;;5020657;28;20058;-75
2021/12/18 07:17:42;;;;;;;110.78;99.90;;;7.70;99.80;;;;;;5020062;28;20049;-75
2021/12/18 07:20:10;;;;;;;111.97;101.07;;;7.70;99.90;;;;;;5019998;28;20137;-76
2021/12/18 07:22:38;;;;;;;111.07;100.38;;;7.70;99.90;;;;;;5029918;28;20078;-75
2021/12/18 07:25:08;;;;;;;111.07;100.30;;;7.70;99.90;;;;;;5031088;28;20061;-76
2021/12/18 07:27:35;;;;;;;111.07;100.28;;;7.70;99.90;;;;;;5032916;28;20073;-75
2021/12/18 07:30:01;;;;;;;110.05;98.97;;;7.70;99.90;;;;;;5034668;28;20173;-76
2021/12/18 07:32:29;;;;;;;111.60;100.68;;;7.70;99.90;;;;;;5034373;28;20046;-75
2021/12/18 07:34:57;;;;;;;110.05;99.13;;;7.70;99.90;;;;;;5034985;28;20415;-75
2021/12/18 07:37:25;;;;;;;111.20;100.32;;;7.70;99.90;;;;;;5036333;28;20053;-75
2021/12/18 07:39:52;;;;;;;111.88;100.93;;;7.70;99.90;;;;;;5035319;28;20540;-75
2021/12/18 07:42:21;;;;;;;110.65;99.85;;;7.70;99.90;;;;;;5036623;28;20060;-75
2021/12/18 07:44:49;;;;;;;113.43;102.43;;;7.70;99.90;;;;;;5035278;28;20642;-75
2021/12/18 07:47:16;;;;;;;111.60;100.32;;;7.70;99.90;;;;;;5034141;28;20054;-78
2021/12/18 07:49:43;;;;;;;114.30;103.15;;;7.70;99.90;;;;;;5031900;28;20104;-78
2021/12/18 07:52:12;;;;;;;112.95;102.03;;;7.70;99.90;;;;;;5019962;28;20141;-76
2021/12/18 07:54:39;;;;;;;114.72;103.45;;;7.70;99.90;;;;;;5035940;28;20581;-76
2021/12/18 07:57:06;;;;;;;113.63;102.63;;;7.70;99.90;;;;;;5029571;28;20058;-76
2021/12/18 07:59:35;;;;;;;114.07;103.07;;;7.70;99.90;;;;;;5035733;28;20049;-75
2021/12/18 08:02:04;;;;;;;112.82;101.72;;;7.70;99.90;;;;;;5027034;28;20129;-76
2021/12/18 08:04:32;;;;;;;111.60;100.68;;;7.70;99.90;;;;;;5015147;28;20133;-77
2021/12/18 08:06:59;;;;;;;116.72;105.43;;;7.70;99.90;;;;;;5019102;28;20133;-76
2021/12/18 08:09:26;;;;;;;115.30;104.10;;;7.70;99.90;;;;;;5022810;28;20053;-75
2021/12/18 08:11:53;;;;;;;113.90;102.95;;;7.70;99.90;;;;;;5027978;28;20136;-75
2021/12/18 08:14:20;;;;;;;114.03;102.55;;;7.70;99.90;;;;;;5025553;28;20050;-75
2021/12/18 08:16:48;;;;;;;114.50;103.30;;;7.70;99.90;;;;;;4974380;28;20411;-75
2021/12/18 08:19:16;;;;;;;113.72;102.55;;;7.70;99.90;;;;;;5019428;28;20046;-77
2021/12/18 08:21:43;;;;;;;110.40;99.60;;;7.80;99.90;;;;;;5014668;28;20054;-77
2021/12/18 08:24:10;;;;;;;112.15;100.97;;;7.80;99.90;;;;;;5014765;28;20086;-75
2021/12/18 08:26:37;;;;;;;111.43;100.43;;;7.80;99.90;;;;;;5015258;28;20066;-75
2021/12/18 08:29:04;;;;;;;112.13;101.13;;;7.80;99.90;;;;;;5015349;28;20077;-76
2021/12/18 08:31:31;;;;;;;112.03;100.90;;;7.80;99.90;;;;;;5012604;28;20051;-75
2021/12/18 08:34:00;;;;;;;110.00;99.38;;;7.80;99.90;;;;;;5015446;28;20058;-78
2021/12/18 08:36:27;;;;;;;112.28;101.32;;;7.90;99.90;;;;;;5014051;28;20050;-77
2021/12/18 08:38:54;;;;;;;112.03;101.15;;;7.90;99.90;;;;;;5013993;28;20050;-76
2021/12/18 08:41:22;;;;;;;112.50;101.53;;;7.90;99.90;;;;;;5014173;28;20070;-76
2021/12/18 08:43:49;;;;;;;113.15;102.35;;;7.90;99.90;;;;;;5013839;28;20054;-76
2021/12/18 08:46:17;;;;;;;114.63;103.38;;;7.90;99.90;;;;;;5014207;28;20496;-76
2021/12/18 08:48:44;;;;;;;113.20;102.05;;;8.00;99.90;;;;;;5044038;28;20492;-77
2021/12/18 08:51:12;;;;;;;112.13;100.93;;;8.00;99.90;;;;;;5013750;28;20056;-77
2021/12/18 08:53:39;;;;;;;110.43;99.57;;;8.00;99.90;;;;;;5008381;28;20833;-76
2021/12/18 08:56:07;;;;;;;112.80;101.65;;;8.00;99.90;;;;;;5014061;28;20078;-76
2021/12/18 08:58:34;;;;;;;115.25;103.78;;;8.00;99.90;;;;;;5015088;28;20061;-77
2021/12/18 09:01:02;;;;;;;113.53;102.22;;;8.00;99.90;;;;;;5014232;28;20053;-77
2021/12/18 09:03:29;;;;;;;111.75;100.93;;;8.10;99.90;;;;;;5013441;28;20050;-77
2021/12/18 09:05:57;;;;;;;114.32;102.95;;;8.10;99.90;;;;;;5013519;28;20042;-75
2021/12/18 09:08:25;;;;;;;114.22;102.93;;;8.10;99.90;;;;;;5009980;28;20057;-75
2021/12/18 09:10:52;;;;;;;114.38;103.07;;;8.10;99.90;;;;;;5019333;28;20062;-77
2021/12/18 09:13:19;;;;;;;116.18;104.57;;;8.10;99.90;;;;;;5005556;28;20060;-77
2021/12/18 09:15:47;;;;;;;114.28;103.07;;;8.10;99.90;;;;;;5020977;28;20504;-77
2021/12/18 09:18:14;;;;;;;113.35;102.03;;;8.20;99.90;;;;;;5022862;28;20072;-77
2021/12/18 09:20:44;;;;;;;113.60;102.32;;;8.20;99.90;;;;;;5025683;28;20078;-77
2021/12/18 09:23:13;;;;;;;114.93;103.45;;;8.20;99.90;;;;;;5015568;28;20078;-77
2021/12/18 09:25:41;;;;;;;113.70;102.70;;;8.20;99.90;;;;;;5027455;28;20046;-77
2021/12/18 09:28:09;;;;;;;113.05;102.10;;;8.20;99.90;;;;;;5017537;28;20543;-77
2021/12/18 09:30:38;;;;;;;112.32;101.13;;;8.20;99.90;;;;;;5014628;28;20051;-76
2021/12/18 09:33:05;;;;;;;112.28;101.30;;;8.30;99.90;;;;;;5009404;28;20054;-77
2021/12/18 09:35:32;;;;;;;112.25;101.40;;;8.30;99.90;;;;;;5021520;28;20046;-77
2021/12/18 09:37:59;;;;;;;112.65;101.45;;;8.30;99.90;;;;;;5045099;28;20054;-75
2021/12/18 09:40:26;;;;;;;116.45;105.35;;;8.30;99.90;;;;;;5014027;28;20082;-75
2021/12/18 09:42:55;;;;;;;115.43;104.32;;;8.30;99.90;;;;;;5012756;28;20081;-75
2021/12/18 09:45:22;;;;;;;116.95;105.82;;;8.40;99.90;;;;;;5018548;28;20046;-75
2021/12/18 09:47:50;;;;;;;118.07;106.82;;;8.40;99.90;;;;;;5012759;28;20157;-76
2021/12/18 09:50:20;;;;;;;115.90;104.70;;;8.40;99.90;;;;;;5012120;28;20061;-74
2021/12/18 09:52:48;;;;;;;115.75;104.57;;;8.40;99.90;;;;;;5013079;28;20058;-73
2021/12/18 09:55:15;;;;;;;115.82;104.60;;;8.40;99.90;;;;;;5012455;28;20133;-74
2021/12/18 09:57:42;;;;;;;117.53;106.35;;;8.40;99.90;;;;;;5011425;28;20046;-75
2021/12/18 10:00:17;;;;;;;114.78;103.10;;;8.50;99.90;;;;;;5012556;28;20065;-74
2021/12/18 10:02:44;;;;;;;120.65;109.20;;;8.50;99.90;;;;;;5009906;28;20632;-75
2021/12/18 10:05:21;;;;;;;116.40;104.90;;;8.50;99.90;;;;;;5012379;28;20134;-75
2021/12/18 10:08:07;;;;;;;113.57;102.28;;;8.50;99.90;;;;;;5012213;28;20576;-75
2021/12/18 10:10:35;;;;;;;115.78;104.07;;;8.60;99.90;;;;;;5012547;28;20082;-75
2021/12/18 10:13:05;;;;;;;115.28;103.90;;;8.60;99.90;;;;;;5043222;28;20057;-75
2021/12/18 10:15:34;;;;;;;113.07;102.18;;;8.60;99.90;;;;;;5012609;28;20043;-75
2021/12/18 10:18:06;;;;;;;113.65;102.18;;;8.60;99.90;;;;;;5012841;28;20054;-76
2021/12/18 10:20:33;;;;;;;112.82;101.68;;;8.70;99.90;;;;;;5012820;28;20050;-76
2021/12/18 10:23:04;;;;;;;113.28;102.22;;;8.70;99.90;;;;;;5012701;28;20132;-75
2021/12/18 10:25:33;;;;;;;115.07;103.90;;;8.70;99.90;;;;;;5044702;28;20101;-73
2021/12/18 10:28:04;;;;;;;114.28;103.18;;;8.70;99.90;;;;;;5021962;28;20052;-76
2021/12/18 10:30:31;;;;;;;113.20;102.35;;;8.70;99.90;;;;;;5016714;28;20051;-76
2021/12/18 10:33:05;;;;;;;112.28;101.15;;;8.80;99.90;;;;;;5018679;28;20173;-75
2021/12/18 10:35:40;;;;;;;113.85;102.95;;;8.80;99.90;;;;;;5020903;28;20136;-75
2021/12/18 10:38:07;;;;;;;111.93;100.47;;;8.80;99.90;;;;;;5020757;28;20054;-75
2021/12/18 10:40:47;;;;;;;111.57;100.78;;;8.80;99.90;;;;;;5023507;28;20129;-74
2021/12/18 10:43:15;;;;;;;111.78;101.07;;;8.90;99.90;;;;;;5012086;28;20133;-75
2021/12/18 10:45:43;;;;;;;111.20;100.47;;;8.90;99.90;;;;;;4994569;28;20132;-75
2021/12/18 10:48:14;;;;;;;111.15;100.13;;;8.90;99.90;;;;;;5011876;28;20582;-75
2021/12/18 10:50:43;;;;;;;111.85;101.18;;;8.90;99.90;;;;;;5010694;28;20085;-74
2021/12/18 10:53:13;;;;;;;110.82;100.15;;;9.00;99.90;;;;;;5013106;28;20077;-77
2021/12/18 10:55:45;;;;;;;111.20;100.53;;;9.00;99.90;;;;;;5012380;28;20098;-77
2021/12/18 10:58:15;;;;;;;111.40;100.85;;;9.00;99.90;;;;;;5008478;28;20543;-76
2021/12/18 11:00:48;;;;;;;110.15;99.03;;;9.00;99.90;;;;;;4992796;28;20110;-75
2021/12/18 11:03:32;;;;;;;111.13;100.13;;;9.10;99.90;;;;;;5005492;28;20054;-76
2021/12/18 11:06:16;;;;;;;110.90;100.30;;;9.10;99.90;;;;;;5014054;28;20153;-76
2021/12/18 11:09:00;;;;;;;111.13;100.53;;;9.10;99.90;;;;;;5015063;28;20475;-76
2021/12/18 11:14:16;;;;;;;111.75;101.15;;;9.20;99.90;;;;;;5015332;28;20046;-77
2021/12/18 11:16:45;;;;;;;109.78;99.20;;;9.20;99.90;;;;;;5020698;28;20070;-77
2021/12/18 11:19:16;;;;;;;110.82;99.97;;;9.20;99.90;;;;;;5024713;28;20058;-75
2021/12/18 11:21:44;;;;;;;109.15;98.70;;;9.20;99.90;;;;;;5016446;28;20054;-75
2021/12/18 11:24:12;;;;;;;111.72;100.78;;;9.30;99.90;;;;;;5015454;28;20058;-76
2021/12/18 11:26:45;;;;;;;111.40;100.53;;;9.30;99.90;;;;;;5016692;28;20102;-75
2021/12/18 11:29:14;;;;;;;111.93;101.30;;;9.30;99.90;;;;;;5016691;28;20078;-75
2021/12/18 11:31:42;;;;;;;110.22;99.43;;;9.30;99.90;;;;;;5014858;28;20057;-75
2021/12/18 11:34:09;;;;;;;110.95;100.35;;;9.40;99.90;;;;;;5015652;28;20468;-76
2021/12/18 11:36:41;;;;;;;109.78;99.40;;;9.40;99.90;;;;;;5009914;28;20070;-76
2021/12/18 11:39:10;;;;;;;109.95;99.43;;;9.40;99.90;;;;;;5016219;28;20116;-76
2021/12/18 11:41:39;;;;;;;108.72;98.38;;;9.40;99.90;;;;;;5015380;28;20157;-77
2021/12/18 11:44:29;;;;;;;110.90;100.50;;;9.40;99.90;;;;;;5001067;28;20135;-76
2021/12/18 11:46:57;;;;;;;110.13;99.60;;;9.40;99.90;;;;;;5010537;28;20063;-81
2021/12/18 11:49:41;;;;;;;110.43;100.00;;;9.50;99.90;;;;;;5013667;28;20054;-77
2021/12/18 11:52:09;;;;;;;108.93;98.68;;;9.50;99.90;;;;;;5036614;28;20056;-80
2021/12/18 11:54:50;;;;;;;109.88;99.60;;;9.50;99.90;;;;;;5022953;28;20217;-79
2021/12/18 11:57:36;;;;;;;110.78;100.03;;;9.50;99.90;;;;;;5027413;28;20046;-80
2021/12/18 12:00:06;;;;;;;109.05;98.65;;;9.50;99.90;;;;;;5034004;28;20078;-80
2021/12/18 12:02:45;;;;;;;109.77;99.27;;;9.50;99.90;;;;;;5026256;28;20145;-78
2021/12/18 12:05:13;;;;;;;109.15;98.75;;;9.60;99.90;;;;;;5023950;28;20307;-79
2021/12/18 12:07:43;;;;;;;110.63;100.13;;;9.60;99.90;;;;;;5016448;28;20798;-77
2021/12/18 12:10:21;;;;;;;110.15;100.00;;;9.60;99.90;;;;;;5013917;28;20057;-80
2021/12/18 12:12:51;;;;;;;111.18;100.95;;;9.60;99.90;;;;;;5022674;28;20129;-79
2021/12/18 12:15:20;;;;;;;110.78;100.65;;;9.60;99.90;;;;;;4994146;28;20150;-80
2021/12/18 12:17:56;;;;;;;111.47;101.13;;;9.60;99.90;;;;;;4994970;28;20051;-80
2021/12/18 12:20:35;;;;;;;111.10;100.65;;;9.60;99.90;;;;;;4994845;28;20058;-79
2021/12/18 12:23:05;;;;;;;110.55;100.25;;;9.60;99.90;;;;;;4994945;28;20062;-79
2021/12/18 12:25:41;;;;;;;111.13;100.82;;;9.70;99.90;;;;;;4999419;28;20058;-79
2021/12/18 12:28:10;;;;;;;108.47;98.30;;;9.70;99.90;;;;;;5007758;28;20054;-79
2021/12/18 12:30:43;;;;;;;108.15;97.78;;;9.70;99.90;;;;;;5022775;28;20085;-79
2021/12/18 12:33:13;;;;;;;109.18;98.95;;;9.70;99.90;;;;;;5024506;28;20056;-79
2021/12/18 12:36:06;;;;;;;108.20;98.05;;;9.70;99.90;;;;;;5023710;28;20563;-78
2021/12/18 12:38:38;;;;;;;111.57;101.28;;;9.70;99.90;;;;;;5014214;28;20058;-81
2021/12/18 12:41:25;;;;;;;109.65;99.35;;;9.70;99.90;;;;;;5013155;28;20134;-79
2021/12/18 12:44:46;;;;;;;108.55;98.35;;;9.70;99.90;;;;;;5017108;28;20055;-81
2021/12/18 12:47:16;;;;;;;111.07;100.35;;;9.80;99.90;;;;;;4994498;28;20054;-80
2021/12/18 12:49:45;;;;;;;109.82;99.63;;;9.70;99.90;;;;;;5013466;28;20081;-80
2021/12/18 12:52:13;;;;;;;111.32;100.65;;;9.80;99.90;;;;;;5016760;28;20070;-80
2021/12/18 12:54:51;;;;;;;109.63;99.25;;;9.80;99.90;;;;;;5014288;28;20058;-84
2021/12/18 12:57:40;;;;;;;109.28;99.07;;;9.80;99.90;;;;;;4997899;28;20078;-82
2021/12/18 13:00:41;;;;;;;111.43;100.85;;;9.80;99.90;;;;;;5013938;28;20043;-81
2021/12/18 13:03:18;;;;;;;110.63;100.20;;;9.80;99.90;;;;;;5014078;28;20142;-82
2021/12/18 13:05:49;;;;;;;110.32;99.78;;;9.80;99.90;;;;;;5002691;28;20056;-82
2021/12/18 13:08:16;;;;;;;110.40;99.97;;;9.80;99.90;;;;;;4997603;28;20050;-81
2021/12/18 13:10:47;;;;;;;112.25;101.47;;;9.80;99.90;;;;;;5013911;28;20100;-83